sensor_id;sensor_type;location;lat;lon;timestamp;pressure;altitude;pressure_sealevel;temperature;humidity
15558;BME280;7880;50.110;9.372;2023-01-31T00:01:31;2.1982065261341632;;;2.375;100.0
15558;BME280;7880;50.110;9.372;2023-01-31T00:06:36;2.162913782527903;;;2.375;100.0
15558;BME280;7880;50.110;9.372;2023-01-31T00:11:39;2.12762105318252;;;2.375;100.0
15558;BME280;7880;50.110;9.372;2023-01-31T00:16:43;2.1225792358687614;;;2.312;100.0
15558;BME280;7880;50.110;9.372;2023-01-31T00:21:48;2.0772028931416573;;;2.25;100.0
15558;BME280;7880;50.110;9.372;2023-01-31T00:26:56;2.067119264625944;;;2.312;100.0
15558;BME280;7880;50.110;9.372;2023-01-31T00:31:56;2.062077450804645;;;2.25;100.0
15558;BME280;7880;50.110;9.372;2023-01-31T00:36:59;2.0368683860637247;;;2.25;100.0
15558;BME280;7880;50.110;9.372;2023-01-31T00:42:03;2.001575707650045;;;2.187;100.0
15558;BME280;7880;50.110;9.372;2023-01-31T00:47:09;1.9814084692450706;;;2.187;100.0
15558;BME280;7880;50.110;9.372;2023-01-31T00:52:13;1.966283043497242;;;2.125;100.0
15558;BME280;7880;50.110;9.372;2023-01-31T00:57:18;1.920906781969825;;;2.125;100.0
15558;BME280;7880;50.110;9.372;2023-01-31T01:02:22;1.9259485876420512;;;2.125;100.0
15558;BME280;7880;50.110;9.372;2023-01-31T01:07:30;1.9410740064049605;;;2.125;100.0
15558;BME280;7880;50.110;9.372;2023-01-31T01:12:28;1.9158649765886366;;;2.125;100.0
15558;BME280;7880;50.110;9.372;2023-01-31T01:17:32;1.8906559540482704;;;2.062;100.0
15558;BME280;7880;50.110;9.372;2023-01-31T01:22:37;1.8604051366040948;;;2.062;100.0
15558;BME280;7880;50.110;9.372;2023-01-31T01:27:40;1.8553633347153664;;;2.062;100.0
15558;BME280;7880;50.110;9.372;2023-01-31T01:32:43;1.8402379307954106;;;2.062;100.0
15558;BME280;7880;50.110;9.372;2023-01-31T01:37:47;1.8251125294947996;;;2.0;100.0
15558;BME280;7880;50.110;9.372;2023-01-31T01:42:52;1.804945331835188;;;2.0;100.0
15558;BME280;7880;50.110;9.372;2023-01-31T01:47:58;1.7999035331478808;;;2.0;100.0
15558;BME280;7880;50.110;9.372;2023-01-31T01:53:03;1.7898199366463814;;;2.0;100.0
15558;BME280;7880;50.110;9.372;2023-01-31T01:58:10;1.7898199366463814;;;1.937;100.0
15558;BME280;7880;50.110;9.372;2023-01-31T02:03:09;1.784778138832189;;;2.0;100.0
15558;BME280;7880;50.110;9.372;2023-01-31T02:08:16;1.7242765877628699;;;1.937;100.0
15558;BME280;7880;50.110;9.372;2023-01-31T02:18:37;1.7141929999925196;;;1.937;100.0
15558;BME280;7880;50.110;9.372;2023-01-31T02:24:26;1.6889840356598143;;;1.875;100.0
15558;BME280;7880;50.110;9.372;2023-01-31T02:29:31;1.6688168694323395;;;1.875;100.0
15558;BME280;7880;50.110;9.372;2023-01-31T02:34:24;1.6889840356598143;;;1.875;100.0
15558;BME280;7880;50.110;9.372;2023-01-31T02:39:27;1.6789004519640003;;;1.875;100.0
15558;BME280;7880;50.110;9.372;2023-01-31T02:45:07;1.6536914978176356;;;1.812;100.0
15558;BME280;7880;50.110;9.372;2023-01-31T02:49:51;1.6284825509472285;;;1.812;100.0
15558;BME280;7880;50.110;9.372;2023-01-31T03:01:44;1.6436079181963579;;;1.812;100.0
15558;BME280;7880;50.110;9.372;2023-01-31T03:06:58;1.6284825509472285;;;1.812;100.0
15558;BME280;7880;50.110;9.372;2023-01-31T03:12:07;1.6183989742363338;;;1.812;100.0
15558;BME280;7880;50.110;9.372;2023-01-31T03:18:03;1.5730228934437036;;;1.75;100.0
15558;BME280;7880;50.110;9.372;2023-01-31T03:22:48;1.5427721860120074;;;1.75;100.0
15558;BME280;7880;50.110;9.372;2023-01-31T03:27:51;1.557897538418183;;;1.75;100.0
15558;BME280;7880;50.110;9.372;2023-01-31T03:32:58;1.4923543635755778;;;1.687;100.0
15558;BME280;7880;50.110;9.372;2023-01-31T03:38:05;1.51252148905769;;;1.687;100.0
15558;BME280;7880;50.110;9.372;2023-01-31T03:43:14;1.5226050535449758;;;1.687;100.0
15558;BME280;7880;50.110;9.372;2023-01-31T03:48:14;1.51252148905769;;;1.687;100.0
15558;BME280;7880;50.110;9.372;2023-01-31T03:53:26;1.5024379257345573;;;1.687;100.0
15558;BME280;7880;50.110;9.372;2023-01-31T03:58:19;1.4772290225198959;;;1.625;100.0
15558;BME280;7880;50.110;9.372;2023-01-31T04:03:26;1.4772290225198959;;;1.625;100.0
15558;BME280;7880;50.110;9.372;2023-01-31T04:08:25;1.4822708025807514;;;1.625;100.0
15558;BME280;7880;50.110;9.372;2023-01-31T04:13:36;1.457061905186856;;;1.625;100.0
15558;BME280;7880;50.110;9.372;2023-01-31T04:18:35;1.457061905186856;;;1.625;100.0
15558;BME280;7880;50.110;9.372;2023-01-31T04:23:39;1.3814352566609158;;;1.562;100.0
15558;BME280;7880;50.110;9.372;2023-01-31T04:28:42;1.4116859082132578;;;1.625;100.0
15558;BME280;7880;50.110;9.372;2023-01-31T04:33:45;1.39151880601421;;;1.562;100.0
15558;BME280;7880;50.110;9.372;2023-01-31T04:38:49;1.3814352566609158;;;1.562;100.0
15558;BME280;7880;50.110;9.372;2023-01-31T04:43:53;1.4016023565316573;;;1.562;100.0
15558;BME280;7880;50.110;9.372;2023-01-31T04:49:15;1.3461428430920932;;;1.5;100.0
15558;BME280;7880;50.110;9.372;2023-01-31T04:54:01;1.3360592989774887;;;1.5;100.0
15558;BME280;7880;50.110;9.372;2023-01-31T04:59:06;1.351184615585953;;;1.562;100.0
15558;BME280;7880;50.110;9.372;2023-01-31T05:04:11;1.3259757560270373;;;1.5;100.0
15558;BME280;7880;50.110;9.372;2023-01-31T05:09:16;1.3158922142407392;;;1.5;100.0
15558;BME280;7880;50.110;9.372;2023-01-31T05:14:20;1.3259757560270373;;;1.5;100.0
15558;BME280;7880;50.110;9.372;2023-01-31T05:19:26;1.3259757560270373;;;1.5;100.0
15558;BME280;7880;50.110;9.372;2023-01-31T05:24:31;1.3360592989774887;;;1.5;100.0
15558;BME280;7880;50.110;9.372;2023-01-31T05:28:08;1.280599827156402;;;1.5;100.0
15558;BME280;7880;50.110;9.372;2023-01-31T05:33:03;1.285641595866764;;;1.437;100.0
15558;BME280;7880;50.110;9.372;2023-01-31T05:38:09;1.2503492210060358;;;1.437;100.0
15558;BME280;7880;50.110;9.372;2023-01-31T05:43:12;1.230182156059891;;;1.437;100.0
15558;BME280;7880;50.110;9.372;2023-01-31T05:48:16;1.3158922142407392;;;1.437;100.0
15558;BME280;7880;50.110;9.372;2023-01-31T05:53:22;1.18984804013744;;;1.375;100.0
15558;BME280;7880;50.110;9.372;2023-01-31T05:58:34;1.0638040479330813;;;1.25;100.0
15558;BME280;7880;50.110;9.372;2023-01-31T06:03:27;1.1243051414901857;;;1.25;100.0
15558;BME280;7880;50.110;9.372;2023-01-31T06:08:32;1.0234700088447426;;;1.25;100.0
15558;BME280;7880;50.110;9.372;2023-01-31T06:13:40;1.0940545894729439;;;1.25;100.0
15558;BME280;7880;50.110;9.372;2023-01-31T06:18:50;1.0537205364147666;;;1.187;100.0
15558;BME280;7880;50.110;9.372;2023-01-31T06:23:47;0.9780942371347919;;;1.125;100.0
15558;BME280;7880;50.110;9.372;2023-01-31T06:28:49;0.9226349926146213;;;1.125;100.0
15558;BME280;7880;50.110;9.372;2023-01-31T06:33:53;0.9579272350529209;;;1.125;100.0
15558;BME280;7880;50.110;9.372;2023-01-31T06:38:58;0.9528854852600489;;;1.125;100.0
15558;BME280;7880;50.110;9.372;2023-01-31T06:44:03;0.9327184889989439;;;1.062;100.0
15558;BME280;7880;50.110;9.372;2023-01-31T06:49:06;0.9175932448590174;;;1.125;100.0
15558;BME280;7880;50.110;9.372;2023-01-31T06:54:10;0.9226349926146213;;;1.062;100.0
15558;BME280;7880;50.110;9.372;2023-01-31T06:59:14;0.9024680033384357;;;1.062;100.0
15558;BME280;7880;50.110;9.372;2023-01-31T07:04:21;0.8671757833100855;;;1.062;100.0
15558;BME280;7880;50.110;9.372;2023-01-31T07:09:23;0.841967063449556;;;1.0;100.0
15558;BME280;7880;50.110;9.372;2023-01-31T07:14:26;0.8722175281553064;;;1.062;100.0
15558;BME280;7880;50.110;9.372;2023-01-31T07:19:31;0.8873427644371986;;;1.062;100.0
15558;BME280;7880;50.110;9.372;2023-01-31T07:24:39;0.9428019865474198;;;1.125;100.0
15558;BME280;7880;50.110;9.372;2023-01-31T07:29:43;0.9579272350529209;;;1.125;100.0
15558;BME280;7880;50.110;9.372;2023-01-31T07:34:47;0.9881777399219572;;;1.187;100.0
15558;BME280;7880;50.110;9.372;2023-01-31T07:39:52;1.0335535168705974;;;1.25;100.0
15558;BME280;7880;50.110;9.372;2023-01-31T07:45:01;1.0638040479330813;;;1.25;100.0
15558;BME280;7880;50.110;9.372;2023-01-31T07:50:00;1.0990963474148885;;;1.312;100.0
15558;BME280;7880;50.110;9.372;2023-01-31T07:55:04;1.1595974654192105;;;1.375;100.0
15558;BME280;7880;50.110;9.372;2023-01-31T08:03:31;1.2200986253330484;;;1.437;100.0
15558;BME280;7880;50.110;9.372;2023-01-31T08:08:12;1.2906833648681642;;;1.5;100.0
15558;BME280;7880;50.110;9.372;2023-01-31T08:13:26;1.3612681614467874;;;1.562;100.0
15558;BME280;7880;50.110;9.372;2023-01-31T08:18:20;1.3411010708892719;;;1.562;100.0
15558;BME280;7880;50.110;9.372;2023-01-31T08:23:25;1.3259757560270373;;;1.562;100.0
15558;BME280;7880;50.110;9.372;2023-01-31T08:28:32;1.320933984988369;;;1.562;100.0
15558;BME280;7880;50.110;9.372;2023-01-31T08:33:35;1.3411010708892719;;;1.562;100.0
15558;BME280;7880;50.110;9.372;2023-01-31T08:38:43;1.4116859082132578;;;1.625;100.0
15558;BME280;7880;50.110;9.372;2023-01-31T08:43:43;1.4167276844906156;;;1.625;100.0
15558;BME280;7880;50.110;9.372;2023-01-31T08:48:48;1.4066441322269383;;;1.625;100.0
15558;BME280;7880;50.110;9.372;2023-01-31T08:53:52;1.4368947925104294;;;1.625;100.0
15558;BME280;7880;50.110;9.372;2023-01-31T08:58:59;1.4066441322269383;;;1.625;100.0
15558;BME280;7880;50.110;9.372;2023-01-31T09:04:11;1.4268112379184459;;;1.625;100.0
15558;BME280;7880;50.110;9.372;2023-01-31T09:09:11;1.457061905186856;;;1.687;100.0
15558;BME280;7880;50.110;9.372;2023-01-31T09:14:08;1.5074797072506043;;;1.687;100.0
15558;BME280;7880;50.110;9.372;2023-01-31T09:19:12;1.5326886191964149;;;1.687;100.0
15558;BME280;7880;50.110;9.372;2023-01-31T09:24:14;1.552855753991753;;;1.75;100.0
15558;BME280;7880;50.110;9.372;2023-01-31T09:29:18;1.4822708025807514;;;1.687;100.0
15558;BME280;7880;50.110;9.372;2023-01-31T09:34:23;1.557897538418183;;;1.75;100.0
15558;BME280;7880;50.110;9.372;2023-01-31T09:39:27;1.5074797072506043;;;1.687;100.0
15558;BME280;7880;50.110;9.372;2023-01-31T09:44:32;1.552855753991753;;;1.75;100.0
15558;BME280;7880;50.110;9.372;2023-01-31T09:49:43;1.5679811081441586;;;1.75;100.0
15558;BME280;7880;50.110;9.372;2023-01-31T09:54:41;1.5427721860120074;;;1.75;100.0
15558;BME280;7880;50.110;9.372;2023-01-31T09:59:54;1.557897538418183;;;1.75;100.0
15558;BME280;7880;50.110;9.372;2023-01-31T10:05:01;1.5074797072506043;;;1.687;100.0
15558;BME280;7880;50.110;9.372;2023-01-31T10:09:55;1.8200707296433394;;;2.125;100.0
15558;BME280;7880;50.110;9.372;2023-01-31T10:15:28;1.452020126581192;;;1.75;100.0
15558;BME280;7880;50.110;9.372;2023-01-31T10:20:18;1.3663099348137622;;;1.562;100.0
15558;BME280;7880;50.110;9.372;2023-01-31T10:25:22;1.3411010708892719;;;1.5;100.0
15558;BME280;7880;50.110;9.372;2023-01-31T10:30:22;1.305808673618594;;;1.5;100.0
15558;BME280;7880;50.110;9.372;2023-01-31T10:34:16;1.3612681614467874;;;1.562;100.0
15558;BME280;7880;50.110;9.372;2023-01-31T10:39:20;1.3814352566609158;;;1.562;100.0
15558;BME280;7880;50.110;9.372;2023-01-31T10:44:31;1.356226388370851;;;1.562;100.0
15558;BME280;7880;50.110;9.372;2023-01-31T10:49:44;1.452020126581192;;;1.625;100.0
15558;BME280;7880;50.110;9.372;2023-01-31T10:55:00;1.3814352566609158;;;1.562;100.0
15558;BME280;7880;50.110;9.372;2023-01-31T10:59:53;1.3612681614467874;;;1.562;100.0
15558;BME280;7880;50.110;9.372;2023-01-31T11:04:59;1.356226388370851;;;1.562;100.0
15558;BME280;7880;50.110;9.372;2023-01-31T11:10:20;1.4873125829326455;;;1.625;100.0
15558;BME280;7880;50.110;9.372;2023-01-31T11:15:14;1.4167276844906156;;;1.625;100.0
15558;BME280;7880;50.110;9.372;2023-01-31T11:20:20;1.4772290225198959;;;1.625;100.0
15558;BME280;7880;50.110;9.372;2023-01-31T11:25:20;1.3965605811274144;;;1.562;100.0
15558;BME280;7880;50.110;9.372;2023-01-31T11:30:28;1.3663099348137622;;;1.562;100.0
15558;BME280;7880;50.110;9.372;2023-01-31T11:35:28;1.3612681614467874;;;1.562;100.0
15558;BME280;7880;50.110;9.372;2023-01-31T11:40:31;1.3612681614467874;;;1.562;100.0
15558;BME280;7880;50.110;9.372;2023-01-31T11:45:36;1.4016023565316573;;;1.562;100.0
15558;BME280;7880;50.110;9.372;2023-01-31T11:50:39;1.4116859082132578;;;1.562;100.0
15558;BME280;7880;50.110;9.372;2023-01-31T11:55:39;1.4066441322269383;;;1.562;100.0
15558;BME280;7880;50.110;9.372;2023-01-31T12:00:53;1.4066441322269383;;;1.562;100.0
15558;BME280;7880;50.110;9.372;2023-01-31T12:06:04;1.452020126581192;;;1.625;100.0
15558;BME280;7880;50.110;9.372;2023-01-31T12:10:56;1.5679811081441586;;;1.687;100.0
15558;BME280;7880;50.110;9.372;2023-01-31T12:16:06;1.537730402458692;;;1.75;100.0
15558;BME280;7880;50.110;9.372;2023-01-31T12:21:13;1.552855753991753;;;1.75;100.0
15558;BME280;7880;50.110;9.372;2023-01-31T12:26:15;1.5931900375522674;;;1.812;100.0
15558;BME280;7880;50.110;9.372;2023-01-31T12:31:27;1.6083153986895922;;;1.812;100.0
15558;BME280;7880;50.110;9.372;2023-01-31T12:36:27;1.6083153986895922;;;1.812;100.0
15558;BME280;7880;50.110;9.372;2023-01-31T12:41:38;1.6688168694323395;;;1.875;100.0
15558;BME280;7880;50.110;9.372;2023-01-31T12:46:54;1.6789004519640003;;;1.937;100.0
15558;BME280;7880;50.110;9.372;2023-01-31T12:51:51;1.7494855622819159;;;1.937;100.0
15558;BME280;7880;50.110;9.372;2023-01-31T12:56:57;1.9713248517888133;;;2.187;100.0
15558;BME280;7880;50.110;9.372;2023-01-31T13:02:21;1.8553633347153664;;;2.125;100.0
15558;BME280;7880;50.110;9.372;2023-01-31T13:07:08;1.8251125294947996;;;2.062;100.0
15558;BME280;7880;50.110;9.372;2023-01-31T13:12:11;1.8402379307954106;;;2.062;100.0
15558;BME280;7880;50.110;9.372;2023-01-31T13:17:12;1.870488741254667;;;2.062;100.0
15558;BME280;7880;50.110;9.372;2023-01-31T13:22:19;1.885614150413312;;;2.125;100.0
15558;BME280;7880;50.110;9.372;2023-01-31T13:27:22;1.900739562191302;;;2.125;100.0
15558;BME280;7880;50.110;9.372;2023-01-31T13:32:26;1.895697757974267;;;2.125;100.0
15558;BME280;7880;50.110;9.372;2023-01-31T13:37:39;1.9461158132413403;;;2.187;100.0
15558;BME280;7880;50.110;9.372;2023-01-31T13:42:33;1.9461158132413403;;;2.125;100.0
15558;BME280;7880;50.110;9.372;2023-01-31T13:47:39;1.961241235496709;;;2.187;100.0
15558;BME280;7880;50.110;9.372;2023-01-31T13:52:43;1.900739562191302;;;2.125;100.0
15558;BME280;7880;50.110;9.372;2023-01-31T13:57:51;1.895697757974267;;;2.062;100.0
15558;BME280;7880;50.110;9.372;2023-01-31T14:02:59;1.961241235496709;;;2.187;100.0
15558;BME280;7880;50.110;9.372;2023-01-31T14:08:26;1.8553633347153664;;;2.062;100.0
15558;BME280;7880;50.110;9.372;2023-01-31T14:13:28;1.885614150413312;;;2.062;100.0
15558;BME280;7880;50.110;9.372;2023-01-31T14:18:35;1.895697757974267;;;2.125;100.0
15558;BME280;7880;50.110;9.372;2023-01-31T14:23:43;1.8604051366040948;;;2.062;100.0
15558;BME280;7880;50.110;9.372;2023-01-31T14:28:25;1.8351961300708353;;;2.062;100.0
15558;BME280;7880;50.110;9.372;2023-01-31T14:33:28;1.8604051366040948;;;2.062;100.0
15558;BME280;7880;50.110;9.372;2023-01-31T14:39:36;1.9108231714984867;;;2.062;100.0
15558;BME280;7880;50.110;9.372;2023-01-31T14:44:33;1.9511576203687582;;;2.125;100.0
15558;BME280;7880;50.110;9.372;2023-01-31T14:49:49;1.9713248517888133;;;2.187;100.0
15558;BME280;7880;50.110;9.372;2023-01-31T14:54:48;2.001575707650045;;;2.187;100.0
15558;BME280;7880;50.110;9.372;2023-01-31T14:59:52;2.026784762204625;;;2.25;100.0
15558;BME280;7880;50.110;9.372;2023-01-31T15:04:55;2.0721610787382816;;;2.25;100.0
15558;BME280;7880;50.110;9.372;2023-01-31T15:09:55;2.062077450804645;;;2.25;100.0
15558;BME280;7880;50.110;9.372;2023-01-31T15:14:59;2.082244707836071;;;2.25;100.0
15558;BME280;7880;50.110;9.372;2023-01-31T15:20:13;2.082244707836071;;;2.312;100.0
15558;BME280;7880;50.110;9.372;2023-01-31T15:25:19;2.1225792358687614;;;2.312;100.0
15558;BME280;7880;50.110;9.372;2023-01-31T15:30:17;2.152830144116888;;;2.375;100.0
15558;BME280;7880;50.110;9.372;2023-01-31T15:35:23;2.12762105318252;;;2.312;100.0
15558;BME280;7880;50.110;9.372;2023-01-31T15:40:25;2.1427465068700258;;;2.312;100.0
15558;BME280;7880;50.110;9.372;2023-01-31T15:45:29;2.1225792358687614;;;2.375;100.0
15558;BME280;7880;50.110;9.372;2023-01-31T15:50:33;2.2385411077179014;;;2.375;100.0
15558;BME280;7880;50.110;9.372;2023-01-31T15:55:39;2.1780392423272135;;;2.437;100.0
15558;BME280;7880;50.110;9.372;2023-01-31T16:00:44;2.1477883253479377;;;2.375;100.0
15558;BME280;7880;50.110;9.372;2023-01-31T16:05:51;2.167955602169968;;;2.375;100.0
15558;BME280;7880;50.110;9.372;2023-01-31T16:10:53;2.1780392423272135;;;2.375;100.0
15558;BME280;7880;50.110;9.372;2023-01-31T16:15:59;2.1982065261341632;;;2.375;100.0
15558;BME280;7880;50.110;9.372;2023-01-31T16:21:13;2.2032483478134965;;;2.375;100.0
15558;BME280;7880;50.110;9.372;2023-01-31T16:26:11;2.157871963176876;;;2.375;100.0
15558;BME280;7880;50.110;9.372;2023-01-31T16:31:17;2.157871963176876;;;2.375;100.0
15558;BME280;7880;50.110;9.372;2023-01-31T16:36:23;2.183081062842393;;;2.375;100.0
15558;BME280;7880;50.110;9.372;2023-01-31T16:41:37;2.1780392423272135;;;2.375;100.0
15558;BME280;7880;50.110;9.372;2023-01-31T16:46:36;2.2234156374412124;;;2.375;100.0
15558;BME280;7880;50.110;9.372;2023-01-31T16:51:40;2.2385411077179014;;;2.437;100.0
15558;BME280;7880;50.110;9.372;2023-01-31T16:56:40;2.2536665806139355;;;2.437;100.0
15558;BME280;7880;50.110;9.372;2023-01-31T17:01:39;2.2940011878090445;;;2.437;100.0
15558;BME280;7880;50.110;9.372;2023-01-31T17:07:00;2.3141684983915183;;;2.5;100.0
15558;BME280;7880;50.110;9.372;2023-01-31T17:11:49;2.3393776431679725;;;2.5;100.0
15558;BME280;7880;50.110;9.372;2023-01-31T17:16:54;2.3595449642278252;;;2.562;100.0
15558;BME280;7880;50.110;9.372;2023-01-31T17:21:59;2.3948377872875426;;;2.562;100.0
15558;BME280;7880;50.110;9.372;2023-01-31T17:27:02;2.430130624608137;;;2.625;100.0
15558;BME280;7880;50.110;9.372;2023-01-31T17:32:14;2.4452561306825373;;;2.625;100.0
15558;BME280;7880;50.110;9.372;2023-01-31T17:37:09;2.4452561306825373;;;2.625;100.0
15558;BME280;7880;50.110;9.372;2023-01-31T17:42:15;2.4956745031813625;;;2.687;100.0
15558;BME280;7880;50.110;9.372;2023-01-31T17:47:18;2.4906326646218075;;;2.687;100.0
15558;BME280;7880;50.110;9.372;2023-01-31T17:52:19;2.5208837003447115;;;2.75;100.0
15558;BME280;7880;50.110;9.372;2023-01-31T17:57:24;2.556176588597009;;;2.75;100.0
15558;BME280;7880;50.110;9.372;2023-01-31T18:02:29;2.6015531801618637;;;2.812;100.0
15558;BME280;7880;50.110;9.372;2023-01-31T18:07:32;2.611636870377697;;;2.812;100.0
15558;BME280;7880;50.110;9.372;2023-01-31T18:12:35;2.66709718737402;;;2.875;100.0
15558;BME280;7880;50.110;9.372;2023-01-31T18:17:39;2.687264584103832;;;2.875;100.0
15558;BME280;7880;50.110;9.372;2023-01-31T18:22:45;2.6923064340138807;;;2.937;100.0
15558;BME280;7880;50.110;9.372;2023-01-31T18:27:47;2.697348284214968;;;2.875;100.0
15558;BME280;7880;50.110;9.372;2023-01-31T18:32:51;2.722557539585978;;;2.937;100.0
15558;BME280;7880;50.110;9.372;2023-01-31T18:37:58;2.707431985490257;;;2.937;100.0
15558;BME280;7880;50.110;9.372;2023-01-31T18:43:00;2.73264124377165;;;2.937;100.0
15558;BME280;7880;50.110;9.372;2023-01-31T18:48:05;2.7981853493547533;;;3.0;100.0
15558;BME280;7880;50.110;9.372;2023-01-31T18:53:08;2.7981853493547533;;;3.0;100.0
15558;BME280;7880;50.110;9.372;2023-01-31T18:58:15;2.818352776352549;;;3.0;100.0
15558;BME280;7880;50.110;9.372;2023-01-31T19:03:17;2.8486039255803917;;;3.062;100.0
15558;BME280;7880;50.110;9.372;2023-01-31T19:08:22;2.8738132246071473;;;3.062;100.0
15558;BME280;7880;50.110;9.372;2023-01-31T19:13:32;2.9242318444885314;;;3.125;100.0
15558;BME280;7880;50.110;9.372;2023-01-31T19:18:37;2.9443993005901574;;;3.187;100.0
15558;BME280;7880;50.110;9.372;2023-01-31T19:23:39;2.9443993005901574;;;3.187;100.0
15558;BME280;7880;50.110;9.372;2023-01-31T19:28:41;2.9645667613483964;;;3.187;100.0
15558;BME280;7880;50.110;9.372;2023-01-31T19:33:47;2.9393574361281933;;;3.125;100.0
15558;BME280;7880;50.110;9.372;2023-01-31T19:38:49;2.914148118183948;;;3.125;100.0
15558;BME280;7880;50.110;9.372;2023-01-31T19:43:57;2.994817961216904;;;3.187;100.0
15558;BME280;7880;50.110;9.372;2023-01-31T19:49:00;2.9998598288802896;;;3.25;100.0
15558;BME280;7880;50.110;9.372;2023-01-31T19:54:02;2.9595248957222795;;;3.187;100.0
15558;BME280;7880;50.110;9.372;2023-01-31T19:59:07;2.969608627265552;;;3.187;100.0
15558;BME280;7880;50.110;9.372;2023-01-31T20:04:10;2.994817961216904;;;3.187;100.0
15558;BME280;7880;50.110;9.372;2023-01-31T20:09:24;2.9847342267632486;;;3.187;100.0
15558;BME280;7880;50.110;9.372;2023-01-31T20:14:21;3.0603622635419017;;;3.25;100.0
15558;BME280;7880;50.110;9.372;2023-01-31T20:19:24;3.0553203923860566;;;3.25;100.0
15558;BME280;7880;50.110;9.372;2023-01-31T20:24:27;3.0704460067267063;;;3.25;100.0
15558;BME280;7880;50.110;9.372;2023-01-31T20:29:36;3.0754878787556663;;;3.25;100.0
15558;BME280;7880;50.110;9.372;2023-01-31T20:34:39;3.0704460067267063;;;3.25;100.0
15558;BME280;7880;50.110;9.372;2023-01-31T20:39:41;3.0805297510756646;;;3.25;100.0
15558;BME280;7880;50.110;9.372;2023-01-31T20:44:34;3.0654041349887846;;;3.25;100.0
15558;BME280;7880;50.110;9.372;2023-01-31T20:49:39;3.0805297510756646;;;3.25;100.0
15558;BME280;7880;50.110;9.372;2023-01-31T20:54:47;3.0906134965887757;;;3.312;100.0
15558;BME280;7880;50.110;9.372;2023-01-31T20:59:51;3.1006972432660405;;;3.312;100.0
15558;BME280;7880;50.110;9.372;2023-01-31T21:04:52;3.1309484902827536;;;3.312;100.0
15558;BME280;7880;50.110;9.372;2023-01-31T21:09:57;3.1410322416166307;;;3.312;100.0
15558;BME280;7880;50.110;9.372;2023-01-31T21:15:05;3.1662416250444947;;;3.375;100.0
15558;BME280;7880;50.110;9.372;2023-01-31T21:20:08;3.1611997477768456;;;3.375;100.0
15558;BME280;7880;50.110;9.372;2023-01-31T21:25:12;3.201534774067113;;;3.375;100.0
15558;BME280;7880;50.110;9.372;2023-01-31T21:30:17;3.231786056008423;;;3.437;100.0
15558;BME280;7880;50.110;9.372;2023-01-31T21:35:27;3.1964928947621956;;;3.437;100.0
15558;BME280;7880;50.110;9.372;2023-01-31T21:40:33;3.2267441749572754;;;3.437;100.0
15558;BME280;7880;50.110;9.372;2023-01-31T21:45:40;3.2217022941971662;;;3.437;100.0
15558;BME280;7880;50.110;9.372;2023-01-31T21:50:37;3.2368279373506086;;;3.437;100.0
15558;BME280;7880;50.110;9.372;2023-01-31T21:55:44;3.2217022941971662;;;3.437;100.0
15558;BME280;7880;50.110;9.372;2023-01-31T22:00:53;3.2116185335500633;;;3.437;100.0
15558;BME280;7880;50.110;9.372;2023-01-31T22:05:53;3.206576653663069;;;3.437;100.0
15558;BME280;7880;50.110;9.372;2023-01-31T22:10:58;3.206576653663069;;;3.375;100.0
15558;BME280;7880;50.110;9.372;2023-01-31T22:16:07;3.2217022941971662;;;3.437;100.0
15558;BME280;7880;50.110;9.372;2023-01-31T22:21:10;3.181367258593673;;;3.375;100.0
15558;BME280;7880;50.110;9.372;2023-01-31T22:26:13;3.1864091370254757;;;3.375;100.0
15558;BME280;7880;50.110;9.372;2023-01-31T22:31:15;3.181367258593673;;;3.375;100.0
15558;BME280;7880;50.110;9.372;2023-01-31T22:36:18;3.206576653663069;;;3.437;100.0
15558;BME280;7880;50.110;9.372;2023-01-31T22:41:23;3.201534774067113;;;3.375;100.0
15558;BME280;7880;50.110;9.372;2023-01-31T22:46:29;3.181367258593673;;;3.375;100.0
15558;BME280;7880;50.110;9.372;2023-01-31T22:51:42;3.1864091370254757;;;3.375;100.0
15558;BME280;7880;50.110;9.372;2023-01-31T22:56:41;3.2166604137280954;;;3.375;100.0
15558;BME280;7880;50.110;9.372;2023-01-31T23:01:47;3.201534774067113;;;3.375;100.0
15558;BME280;7880;50.110;9.372;2023-01-31T23:06:49;3.1662416250444947;;;3.312;100.0
15558;BME280;7880;50.110;9.372;2023-01-31T23:11:56;3.1864091370254757;;;3.375;100.0
15558;BME280;7880;50.110;9.372;2023-01-31T23:18:05;3.206576653663069;;;3.375;100.0
15558;BME280;7880;50.110;9.372;2023-01-31T23:22:50;3.2116185335500633;;;3.375;100.0
15558;BME280;7880;50.110;9.372;2023-01-31T23:27:50;3.1611997477768456;;;3.375;100.0
15558;BME280;7880;50.110;9.372;2023-01-31T23:32:54;3.1914510157483162;;;3.375;100.0
15558;BME280;7880;50.110;9.372;2023-01-31T23:37:57;3.201534774067113;;;3.375;100.0
15558;BME280;7880;50.110;9.372;2023-01-31T23:43:00;3.1662416250444947;;;3.375;100.0
15558;BME280;7880;50.110;9.372;2023-01-31T23:48:06;3.1712835026031825;;;3.375;100.0
15558;BME280;7880;50.110;9.372;2023-01-31T23:53:08;3.1712835026031825;;;3.375;100.0
15558;BME280;7880;50.110;9.372;2023-01-31T23:58:16;3.2166604137280954;;;3.375;100.0
